createdAt,value
2023-05-02T00:00:40.533Z,94719.00
2023-05-02T00:01:40.509Z,94719.00
2023-05-02T00:02:40.678Z,94719.00
2023-05-02T00:03:40.633Z,94719.00
2023-05-02T00:04:40.610Z,94719.00
2023-05-02T00:05:40.637Z,94719.00
2023-05-02T00:06:40.729Z,94719.00
2023-05-02T00:07:40.793Z,94717.00
2023-05-02T00:08:40.777Z,94717.00
2023-05-02T00:09:40.849Z,94717.00
2023-05-02T00:10:40.916Z,94715.00
2023-05-02T00:11:40.944Z,94717.00
2023-05-02T00:12:41.018Z,94715.00
2023-05-02T00:13:41.028Z,94715.00
2023-05-02T00:14:41.093Z,94713.00
2023-05-02T00:15:41.233Z,94711.00
2023-05-02T00:16:41.285Z,94713.00
2023-05-02T00:17:41.348Z,94711.00
2023-05-02T00:18:41.342Z,94711.00
2023-05-02T00:19:41.400Z,94709.00
2023-05-02T00:20:41.575Z,94711.00
2023-05-02T00:21:41.543Z,94711.00
2023-05-02T00:22:42.544Z,94713.00
2023-05-02T00:23:41.610Z,94711.00
2023-05-02T00:24:41.681Z,94711.00
2023-05-02T00:25:41.713Z,94709.00
2023-05-02T00:26:41.814Z,94711.00
2023-05-02T00:27:41.815Z,94711.00
2023-05-02T00:28:41.872Z,94709.00
2023-05-02T00:29:41.918Z,94711.00
2023-05-02T00:30:41.954Z,94709.00
2023-05-02T00:31:42.012Z,94707.00
2023-05-02T00:32:42.068Z,94709.00
2023-05-02T00:33:42.072Z,94707.00
2023-05-02T00:34:42.121Z,94707.00
2023-05-02T00:35:42.213Z,94711.00
2023-05-02T00:36:42.219Z,94709.00
2023-05-02T00:37:42.268Z,94707.00
2023-05-02T00:38:42.305Z,94709.00
2023-05-02T00:39:42.416Z,94707.00
2023-05-02T00:40:42.469Z,94707.00
2023-05-02T00:41:42.461Z,94707.00
2023-05-02T00:42:42.536Z,94705.00
2023-05-02T00:43:42.559Z,94704.00
2023-05-02T00:44:42.648Z,94705.00
2023-05-02T00:45:42.687Z,94705.00
2023-05-02T00:46:42.821Z,94705.00
2023-05-02T00:47:42.850Z,94707.00
2023-05-02T00:48:42.841Z,94705.00
2023-05-02T00:49:42.905Z,94707.00
2023-05-02T00:50:43.065Z,94711.00
2023-05-02T00:51:42.999Z,94707.00
2023-05-02T00:52:43.014Z,94709.00
2023-05-02T00:53:43.083Z,94707.00
2023-05-02T00:54:43.566Z,94707.00
2023-05-02T00:55:43.174Z,94709.00
2023-05-02T00:56:43.232Z,94707.00
2023-05-02T00:57:43.258Z,94709.00
2023-05-02T00:58:43.300Z,94709.00
2023-05-02T00:59:43.400Z,94711.00
2023-05-02T01:00:43.423Z,94707.00
2023-05-02T01:01:43.498Z,94711.00
2023-05-02T01:02:43.588Z,94709.00
2023-05-02T01:03:43.704Z,94711.00
2023-05-02T01:04:43.616Z,94709.00
2023-05-02T01:05:43.670Z,94713.00
2023-05-02T01:06:43.770Z,94711.00
2023-05-02T01:07:43.809Z,94715.00
2023-05-02T01:08:43.869Z,94715.00
2023-05-02T01:09:43.946Z,94715.00
2023-05-02T01:10:43.990Z,94715.00
2023-05-02T01:11:44.008Z,94715.00
2023-05-02T01:12:44.056Z,94717.00
2023-05-02T01:13:44.135Z,94715.00
2023-05-02T01:14:44.194Z,94717.00
2023-05-02T01:15:44.237Z,94717.00
2023-05-02T01:16:44.540Z,94717.00
2023-05-02T01:17:44.369Z,94719.00
2023-05-02T01:18:44.345Z,94719.00
2023-05-02T01:19:44.390Z,94719.00
2023-05-02T01:20:44.460Z,94719.00
2023-05-02T01:21:44.515Z,94719.00
2023-05-02T01:22:44.589Z,94719.00
2023-05-02T01:23:44.641Z,94721.00
2023-05-02T01:24:44.681Z,94721.00
2023-05-02T01:25:44.738Z,94723.00
2023-05-02T01:26:44.807Z,94723.00
2023-05-02T01:27:44.853Z,94723.00
2023-05-02T01:28:44.938Z,94725.00
2023-05-02T01:29:44.961Z,94725.00
2023-05-02T01:30:45.023Z,94727.00
2023-05-02T01:31:45.168Z,94727.00
2023-05-02T01:32:45.157Z,94725.00
2023-05-02T01:33:45.173Z,94721.00
2023-05-02T01:34:45.244Z,94725.00
2023-05-02T01:35:45.398Z,94727.00
2023-05-02T01:36:45.390Z,94721.00
2023-05-02T01:37:45.451Z,94723.00
2023-05-02T01:38:45.455Z,94723.00
2023-05-02T01:39:45.526Z,94723.00
2023-05-02T01:40:45.593Z,94723.00
2023-05-02T01:41:45.626Z,94723.00
2023-05-02T01:42:45.690Z,94723.00
2023-05-02T01:43:45.735Z,94723.00
2023-05-02T01:44:45.775Z,94725.00
2023-05-02T01:45:45.811Z,94725.00
2023-05-02T01:46:45.951Z,94725.00
2023-05-02T01:47:46.032Z,94727.00
2023-05-02T01:48:45.999Z,94727.00
2023-05-02T01:49:46.044Z,94727.00
2023-05-02T01:50:46.085Z,94729.00
2023-05-02T01:51:46.158Z,94729.00
2023-05-02T01:52:46.187Z,94731.00
2023-05-02T01:53:46.247Z,94733.00
2023-05-02T01:54:46.318Z,94733.00
2023-05-02T01:55:46.381Z,94733.00
2023-05-02T01:56:46.412Z,94737.00
2023-05-02T01:57:46.472Z,94735.00
2023-05-02T01:58:46.492Z,94735.00
2023-05-02T01:59:46.560Z,94737.00
2023-05-02T02:00:46.729Z,94737.00
2023-05-02T02:01:46.688Z,94739.00
2023-05-02T02:02:46.822Z,94739.00
2023-05-02T02:03:46.815Z,94739.00
2023-05-02T02:04:46.855Z,94737.00
2023-05-02T02:05:46.886Z,94737.00
2023-05-02T02:06:47.113Z,94743.00
2023-05-02T02:07:46.971Z,94737.00
2023-05-02T02:08:47.022Z,94737.00
2023-05-02T02:09:47.114Z,94735.00
2023-05-02T02:10:47.131Z,94737.00
2023-05-02T02:11:47.195Z,94737.00
2023-05-02T02:12:47.223Z,94735.00
2023-05-02T02:13:47.274Z,94737.00
2023-05-02T02:14:47.345Z,94737.00
2023-05-02T02:15:47.375Z,94737.00
2023-05-02T02:16:47.540Z,94737.00
2023-05-02T02:17:47.537Z,94735.00
2023-05-02T02:18:47.568Z,94735.00
2023-05-02T02:19:48.116Z,94735.00
2023-05-02T02:20:47.670Z,94735.00
2023-05-02T02:21:47.738Z,94735.00
2023-05-02T02:22:47.802Z,94735.00
2023-05-02T02:23:47.873Z,94737.00
2023-05-02T02:24:47.903Z,94739.00
2023-05-02T02:25:48.025Z,94737.00
2023-05-02T02:26:48.007Z,94739.00
2023-05-02T02:27:48.076Z,94739.00
2023-05-02T02:28:48.086Z,94739.00
2023-05-02T02:29:48.126Z,94739.00
2023-05-02T02:30:48.304Z,94743.00
2023-05-02T02:31:48.592Z,94739.00
2023-05-02T02:32:48.348Z,94743.00
2023-05-02T02:33:48.366Z,94739.00
2023-05-02T02:34:48.388Z,94741.00
2023-05-02T02:35:48.419Z,94739.00
2023-05-02T02:36:48.522Z,94739.00
2023-05-02T02:37:48.514Z,94739.00
2023-05-02T02:38:48.514Z,94741.00
2023-05-02T02:39:48.625Z,94739.00
2023-05-02T02:40:48.605Z,94743.00
2023-05-02T02:41:48.678Z,94743.00
2023-05-02T02:42:48.731Z,94741.00
2023-05-02T02:43:48.782Z,94747.00
2023-05-02T02:44:48.845Z,94745.00
2023-05-02T02:45:48.907Z,94745.00
2023-05-02T02:46:49.005Z,94741.00
2023-05-02T02:47:49.123Z,94743.00
2023-05-02T02:48:49.014Z,94745.00
2023-05-02T02:49:49.130Z,94745.00
2023-05-02T02:50:49.129Z,94747.00
2023-05-02T02:51:49.169Z,94747.00
2023-05-02T02:52:49.233Z,94747.00
2023-05-02T02:53:49.248Z,94749.00
2023-05-02T02:54:49.325Z,94751.00
2023-05-02T02:55:49.348Z,94749.00
2023-05-02T02:56:49.423Z,94747.00
2023-05-02T02:57:49.431Z,94749.00
2023-05-02T02:58:49.489Z,94749.00
2023-05-02T02:59:49.533Z,94749.00
2023-05-02T03:00:49.644Z,94749.00
2023-05-02T03:01:49.676Z,94751.00
2023-05-02T03:02:49.712Z,94749.00
2023-05-02T03:03:49.861Z,94749.00
2023-05-02T03:04:49.787Z,94747.00
2023-05-02T03:05:49.879Z,94751.00
2023-05-02T03:06:50.081Z,94749.00
2023-05-02T03:07:49.918Z,94749.00
2023-05-02T03:08:49.966Z,94749.00
2023-05-02T03:09:50.035Z,94749.00
2023-05-02T03:10:50.113Z,94749.00
2023-05-02T03:11:50.168Z,94749.00
2023-05-02T03:12:50.186Z,94749.00
2023-05-02T03:13:50.296Z,94753.00
2023-05-02T03:14:50.339Z,94751.00
2023-05-02T03:15:50.380Z,94751.00
2023-05-02T03:16:50.400Z,94753.00
2023-05-02T03:17:50.481Z,94753.00
2023-05-02T03:18:50.512Z,94753.00
2023-05-02T03:19:50.546Z,94755.00
2023-05-02T03:20:50.602Z,94753.00
2023-05-02T03:21:50.662Z,94751.00
2023-05-02T03:22:50.691Z,94753.00
2023-05-02T03:23:50.740Z,94755.00
2023-05-02T03:24:50.770Z,94755.00
2023-05-02T03:25:50.867Z,94755.00
2023-05-02T03:26:50.870Z,94755.00
2023-05-02T03:27:50.938Z,94755.00
2023-05-02T03:28:50.880Z,94755.00
2023-05-02T03:29:50.928Z,94756.00
2023-05-02T03:30:50.943Z,94755.00
2023-05-02T03:31:51.027Z,94758.00
2023-05-02T03:32:51.088Z,94760.00
2023-05-02T03:33:51.104Z,94760.00
2023-05-02T03:34:51.160Z,94762.00
2023-05-02T03:35:51.169Z,94764.00
2023-05-02T03:36:51.202Z,94766.00
2023-05-02T03:37:51.263Z,94766.00
2023-05-02T03:38:51.311Z,94766.00
2023-05-02T03:39:51.340Z,94768.00
2023-05-02T03:40:51.394Z,94768.00
2023-05-02T03:41:51.471Z,94770.00
2023-05-02T03:42:51.508Z,94772.00
2023-05-02T03:43:51.542Z,94768.00
2023-05-02T03:44:51.609Z,94772.00
2023-05-02T03:45:51.642Z,94770.00
2023-05-02T03:46:51.715Z,94770.00
2023-05-02T03:47:53.703Z,94770.00
2023-05-02T03:48:51.754Z,94768.00
2023-05-02T03:49:51.814Z,94768.00
2023-05-02T03:50:51.807Z,94768.00
2023-05-02T03:51:51.891Z,94768.00
2023-05-02T03:52:51.891Z,94772.00
2023-05-02T03:53:51.972Z,94770.00
2023-05-02T03:54:52.013Z,94770.00
2023-05-02T03:55:52.061Z,94772.00
2023-05-02T03:56:52.144Z,94772.00
2023-05-02T03:57:52.120Z,94772.00
2023-05-02T03:58:52.183Z,94774.00
2023-05-02T03:59:52.197Z,94776.00
2023-05-02T04:00:52.277Z,94778.00
2023-05-02T04:01:52.338Z,94780.00
2023-05-02T04:02:52.381Z,94778.00
2023-05-02T04:03:52.442Z,94782.00
2023-05-02T04:04:52.419Z,94782.00
2023-05-02T04:05:52.476Z,94782.00
2023-05-02T04:06:52.549Z,94786.00
2023-05-02T04:07:52.538Z,94780.00
2023-05-02T04:08:52.589Z,94786.00
2023-05-02T04:09:52.617Z,94786.00
2023-05-02T04:10:52.651Z,94786.00
2023-05-02T04:11:52.746Z,94786.00
2023-05-02T04:12:52.747Z,94788.00
2023-05-02T04:13:53.463Z,94786.00
2023-05-02T04:14:53.162Z,94790.00
2023-05-02T04:15:52.820Z,94790.00
2023-05-02T04:16:52.967Z,94792.00
2023-05-02T04:17:52.959Z,94792.00
2023-05-02T04:18:52.930Z,94792.00
2023-05-02T04:19:52.952Z,94792.00
2023-05-02T04:20:52.979Z,94796.00
2023-05-02T04:21:53.053Z,94796.00
2023-05-02T04:22:53.061Z,94798.00
2023-05-02T04:23:53.074Z,94800.00
2023-05-02T04:24:53.115Z,94800.00
2023-05-02T04:25:53.145Z,94800.00
2023-05-02T04:26:53.186Z,94802.00
2023-05-02T04:27:53.179Z,94804.00
2023-05-02T04:28:53.160Z,94804.00
2023-05-02T04:29:53.218Z,94806.00
2023-05-02T04:30:53.297Z,94806.00
2023-05-02T04:31:53.322Z,94806.00
2023-05-02T04:32:53.415Z,94807.00
2023-05-02T04:33:53.330Z,94807.00
2023-05-02T04:34:53.374Z,94809.00
2023-05-02T04:35:53.394Z,94811.00
2023-05-02T04:36:53.465Z,94817.00
2023-05-02T04:37:53.446Z,94815.00
2023-05-02T04:38:53.446Z,94819.00
2023-05-02T04:39:53.520Z,94821.00
2023-05-02T04:40:53.547Z,94823.00
2023-05-02T04:41:53.585Z,94825.00
2023-05-02T04:42:53.605Z,94829.00
2023-05-02T04:43:53.637Z,94833.00
2023-05-02T04:44:53.653Z,94831.00
2023-05-02T04:45:53.758Z,94833.00
2023-05-02T04:46:54.320Z,94833.00
2023-05-02T04:47:53.802Z,94835.00
2023-05-02T04:48:53.774Z,94833.00
2023-05-02T04:49:53.796Z,94833.00
2023-05-02T04:50:53.844Z,94835.00
2023-05-02T04:51:53.933Z,94835.00
2023-05-02T04:52:53.905Z,94835.00
2023-05-02T04:53:53.935Z,94837.00
2023-05-02T04:54:54.010Z,94835.00
2023-05-02T04:55:54.066Z,94837.00
2023-05-02T04:56:54.128Z,94837.00
2023-05-02T04:57:54.057Z,94839.00
2023-05-02T04:58:54.129Z,94841.00
2023-05-02T04:59:54.142Z,94841.00
2023-05-02T05:00:54.155Z,94847.00
2023-05-02T05:01:54.298Z,94845.00
2023-05-02T05:02:54.345Z,94845.00
2023-05-02T05:03:54.393Z,94849.00
2023-05-02T05:04:54.440Z,94847.00
2023-05-02T05:05:54.374Z,94849.00
2023-05-02T05:06:54.484Z,94849.00
2023-05-02T05:07:54.480Z,94853.00
2023-05-02T05:08:54.506Z,94853.00
2023-05-02T05:09:54.546Z,94856.00
2023-05-02T05:10:54.543Z,94856.00
2023-05-02T05:11:54.604Z,94856.00
2023-05-02T05:12:54.600Z,94858.00
2023-05-02T05:13:54.692Z,94858.00
2023-05-02T05:14:54.681Z,94862.00
2023-05-02T05:15:54.724Z,94860.00
2023-05-02T05:16:54.758Z,94862.00
2023-05-02T05:17:54.803Z,94860.00
2023-05-02T05:18:54.774Z,94864.00
2023-05-02T05:19:54.770Z,94864.00
2023-05-02T05:20:54.911Z,94866.00
2023-05-02T05:21:55.156Z,94866.00
2023-05-02T05:22:55.057Z,94866.00
2023-05-02T05:23:57.712Z,94866.00
2023-05-02T05:24:54.890Z,94868.00
2023-05-02T05:25:54.873Z,94866.00
2023-05-02T05:26:54.949Z,94868.00
2023-05-02T05:27:55.231Z,94870.00
2023-05-02T05:28:55.697Z,94870.00
2023-05-02T05:29:55.193Z,94874.00
2023-05-02T05:30:54.993Z,94874.00
2023-05-02T05:31:54.874Z,94876.00
2023-05-02T05:32:55.872Z,94876.00
2023-05-02T05:33:55.745Z,94884.00
2023-05-02T05:34:55.188Z,94884.00
2023-05-02T05:35:54.845Z,94886.00
2023-05-02T05:36:54.763Z,94888.00
2023-05-02T05:37:56.810Z,94892.00
2023-05-02T05:38:55.730Z,94892.00
2023-05-02T05:39:55.194Z,94892.00
2023-05-02T05:40:54.751Z,94896.00
2023-05-02T05:41:54.727Z,94892.00
2023-05-02T05:42:54.764Z,94892.00
2023-05-02T05:43:54.748Z,94894.00
2023-05-02T05:44:54.730Z,94894.00
2023-05-02T05:45:54.836Z,94896.00
2023-05-02T05:46:54.896Z,94894.00
2023-05-02T05:47:54.886Z,94902.00
2023-05-02T05:48:54.894Z,94900.00
2023-05-02T05:49:55.348Z,94904.00
2023-05-02T05:50:54.981Z,94902.00
2023-05-02T05:51:54.999Z,94902.00
2023-05-02T05:52:55.897Z,94904.00
2023-05-02T05:53:55.110Z,94906.00
2023-05-02T05:54:55.220Z,94906.00
2023-05-02T05:55:55.121Z,94909.00
2023-05-02T05:56:55.146Z,94909.00
2023-05-02T05:57:55.218Z,94909.00
2023-05-02T05:58:55.184Z,94909.00
2023-05-02T05:59:55.288Z,94909.00
2023-05-02T06:00:55.238Z,94909.00
2023-05-02T06:01:55.289Z,94909.00
2023-05-02T06:02:55.323Z,94909.00
2023-05-02T06:03:55.390Z,94911.00
2023-05-02T06:04:55.347Z,94913.00
2023-05-02T06:05:55.339Z,94909.00
2023-05-02T06:06:55.433Z,94911.00
2023-05-02T06:07:55.316Z,94913.00
2023-05-02T06:08:55.342Z,94915.00
2023-05-02T06:09:55.341Z,94913.00
2023-05-02T06:10:55.395Z,94919.00
2023-05-02T06:11:55.383Z,94921.00
2023-05-02T06:12:55.402Z,94919.00
2023-05-02T06:13:55.420Z,94923.00
2023-05-02T06:14:55.443Z,94927.00
2023-05-02T06:15:55.471Z,94927.00
2023-05-02T06:16:55.475Z,94929.00
2023-05-02T06:17:55.487Z,94927.00
2023-05-02T06:18:55.602Z,94929.00
2023-05-02T06:19:58.899Z,94931.00
2023-05-02T06:20:55.479Z,94929.00
2023-05-02T06:21:55.468Z,94931.00
2023-05-02T06:22:55.528Z,94933.00
2023-05-02T06:23:55.457Z,94935.00
2023-05-02T06:24:55.835Z,94937.00
2023-05-02T06:25:55.491Z,94937.00
2023-05-02T06:26:55.455Z,94937.00
2023-05-02T06:27:55.423Z,94937.00
2023-05-02T06:28:55.432Z,94939.00
2023-05-02T06:29:55.431Z,94939.00
2023-05-02T06:30:55.417Z,94939.00
2023-05-02T06:31:55.454Z,94943.00
2023-05-02T06:32:55.433Z,94943.00
2023-05-02T06:33:55.384Z,94943.00
2023-05-02T06:34:55.401Z,94941.00
2023-05-02T06:35:55.415Z,94945.00
2023-05-02T06:36:55.443Z,94943.00
2023-05-02T06:37:55.741Z,94943.00
2023-05-02T06:38:55.432Z,94943.00
2023-05-02T06:39:56.231Z,94943.00
2023-05-02T06:40:55.363Z,94945.00
2023-05-02T06:41:55.364Z,94947.00
2023-05-02T06:42:55.368Z,94949.00
2023-05-02T06:43:55.321Z,94953.00
2023-05-02T06:44:55.317Z,94954.00
2023-05-02T06:45:55.302Z,94953.00
2023-05-02T06:46:55.372Z,94953.00
2023-05-02T06:47:55.334Z,94954.00
2023-05-02T06:48:55.303Z,94954.00
2023-05-02T06:49:55.339Z,94954.00
2023-05-02T06:50:55.298Z,94954.00
2023-05-02T06:51:55.317Z,94954.00
2023-05-02T06:52:55.326Z,94953.00
2023-05-02T06:53:55.286Z,94954.00
2023-05-02T06:54:55.252Z,94954.00
2023-05-02T06:55:55.231Z,94956.00
2023-05-02T06:56:55.315Z,94956.00
2023-05-02T06:57:55.267Z,94958.00
2023-05-02T06:58:55.269Z,94958.00
2023-05-02T06:59:55.314Z,94962.00
2023-05-02T07:00:55.280Z,94964.00
2023-05-02T07:01:55.240Z,94964.00
2023-05-02T07:02:55.874Z,94966.00
2023-05-02T07:03:55.391Z,94966.00
2023-05-02T07:04:55.346Z,94966.00
2023-05-02T07:05:55.454Z,94966.00
2023-05-02T07:06:55.479Z,94966.00
2023-05-02T07:07:56.971Z,94966.00
2023-05-02T07:08:55.469Z,94966.00
2023-05-02T07:09:55.705Z,94964.00
2023-05-02T07:10:55.618Z,94968.00
2023-05-02T07:11:55.574Z,94966.00
2023-05-02T07:12:55.763Z,94968.00
2023-05-02T07:13:55.616Z,94966.00
2023-05-02T07:14:55.687Z,94970.00
2023-05-02T07:15:55.721Z,94972.00
2023-05-02T07:16:55.900Z,94972.00
2023-05-02T07:17:55.778Z,94970.00
2023-05-02T07:18:55.812Z,94970.00
2023-05-02T07:19:55.791Z,94972.00
2023-05-02T07:20:55.909Z,94972.00
2023-05-02T07:21:55.867Z,94976.00
2023-05-02T07:22:56.249Z,94974.00
2023-05-02T07:23:55.966Z,94970.00
2023-05-02T07:24:55.961Z,94970.00
2023-05-02T07:25:56.012Z,94974.00
2023-05-02T07:26:56.007Z,94976.00
2023-05-02T07:27:56.057Z,94978.00
2023-05-02T07:28:56.067Z,94976.00
2023-05-02T07:29:56.157Z,94976.00
2023-05-02T07:30:56.138Z,94976.00
2023-05-02T07:31:56.183Z,94980.00
2023-05-02T07:32:56.160Z,94980.00
2023-05-02T07:33:56.172Z,94978.00
2023-05-02T07:34:56.373Z,94980.00
2023-05-02T07:35:56.267Z,94982.00
2023-05-02T07:36:56.249Z,94980.00
2023-05-02T07:37:56.272Z,94978.00
2023-05-02T07:38:56.277Z,94982.00
2023-05-02T07:39:57.306Z,94980.00
2023-05-02T07:40:56.365Z,94986.00
2023-05-02T07:41:56.345Z,94984.00
2023-05-02T07:42:56.429Z,94984.00
2023-05-02T07:43:56.391Z,94984.00
2023-05-02T07:44:56.452Z,94988.00
2023-05-02T07:45:56.533Z,94986.00
2023-05-02T07:46:56.459Z,94988.00
2023-05-02T07:47:56.571Z,94990.00
2023-05-02T07:48:56.527Z,94990.00
2023-05-02T07:49:56.552Z,94986.00
2023-05-02T07:50:56.570Z,94986.00
2023-05-02T07:51:56.676Z,94986.00
2023-05-02T07:52:56.672Z,94988.00
2023-05-02T07:53:56.674Z,94986.00
2023-05-02T07:54:56.788Z,94988.00
2023-05-02T07:55:56.712Z,94990.00
2023-05-02T07:56:56.744Z,94988.00
2023-05-02T07:57:56.917Z,94990.00
2023-05-02T07:58:56.783Z,94992.00
2023-05-02T07:59:56.817Z,94994.00
2023-05-02T08:00:56.828Z,94996.00
2023-05-02T08:01:56.868Z,94992.00
2023-05-02T08:02:57.027Z,94998.00
2023-05-02T08:03:57.047Z,94998.00
2023-05-02T08:04:56.985Z,94996.00
2023-05-02T08:05:57.005Z,95000.00
2023-05-02T08:06:56.981Z,95000.00
2023-05-02T08:07:57.019Z,95000.00
2023-05-02T08:08:57.104Z,95000.00
2023-05-02T08:09:57.118Z,95006.00
2023-05-02T08:10:57.141Z,95002.00
2023-05-02T08:11:57.124Z,95004.00
2023-05-02T08:12:57.289Z,95006.00
2023-05-02T08:13:57.217Z,95008.00
2023-05-02T08:14:57.287Z,95008.00
2023-05-02T08:15:58.832Z,95008.00
2023-05-02T08:16:57.403Z,95011.00
2023-05-02T08:17:57.387Z,95011.00
2023-05-02T08:18:57.462Z,95013.00
2023-05-02T08:19:58.068Z,95011.00
2023-05-02T08:20:57.784Z,95009.00
2023-05-02T08:21:57.413Z,95009.00
2023-05-02T08:22:58.614Z,95011.00
2023-05-02T08:23:57.573Z,95013.00
2023-05-02T08:24:57.692Z,95013.00
2023-05-02T08:25:57.666Z,95015.00
2023-05-02T08:26:57.741Z,95013.00
2023-05-02T08:27:57.723Z,95013.00
2023-05-02T08:28:57.776Z,95015.00
2023-05-02T08:29:59.416Z,95011.00
2023-05-02T08:30:57.744Z,95015.00
2023-05-02T08:31:57.758Z,95015.00
2023-05-02T08:32:57.769Z,95015.00
2023-05-02T08:33:57.697Z,95011.00
2023-05-02T08:34:57.717Z,95009.00
2023-05-02T08:35:57.678Z,95011.00
2023-05-02T08:36:58.664Z,95009.00
2023-05-02T08:37:57.671Z,95011.00
2023-05-02T08:38:57.683Z,95011.00
2023-05-02T08:39:57.722Z,95015.00
2023-05-02T08:40:57.666Z,95015.00
2023-05-02T08:41:57.671Z,95015.00
2023-05-02T08:42:57.763Z,95017.00
2023-05-02T08:43:57.627Z,95019.00
2023-05-02T08:44:57.646Z,95019.00
2023-05-02T08:45:57.663Z,95025.00
2023-05-02T08:46:57.623Z,95021.00
2023-05-02T08:47:57.899Z,95019.00
2023-05-02T08:48:57.612Z,95023.00
2023-05-02T08:49:57.755Z,95021.00
2023-05-02T08:50:57.605Z,95021.00
2023-05-02T08:51:57.616Z,95023.00
2023-05-02T08:52:57.595Z,95019.00
2023-05-02T08:53:57.561Z,95023.00
2023-05-02T08:54:57.594Z,95025.00
2023-05-02T08:55:57.904Z,95025.00
2023-05-02T08:56:57.529Z,95027.00
2023-05-02T08:57:57.568Z,95025.00
2023-05-02T08:58:57.515Z,95023.00
2023-05-02T08:59:57.579Z,95025.00
2023-05-02T09:00:57.528Z,95025.00
2023-05-02T09:01:57.507Z,95027.00
2023-05-02T09:02:57.567Z,95031.00
2023-05-02T09:03:57.637Z,95031.00
2023-05-02T09:04:57.717Z,95037.00
2023-05-02T09:05:57.472Z,95037.00
2023-05-02T09:06:57.531Z,95033.00
2023-05-02T09:07:57.705Z,95033.00
2023-05-02T09:08:57.772Z,95033.00
2023-05-02T09:09:57.639Z,95033.00
2023-05-02T09:10:57.456Z,95035.00
2023-05-02T09:11:57.500Z,95033.00
2023-05-02T09:12:57.468Z,95033.00
2023-05-02T09:13:57.480Z,95035.00
2023-05-02T09:14:57.758Z,95033.00
2023-05-02T09:15:57.688Z,95033.00
2023-05-02T09:16:57.666Z,95031.00
2023-05-02T09:17:57.607Z,95037.00
2023-05-02T09:18:57.581Z,95033.00
2023-05-02T09:19:57.603Z,95037.00
2023-05-02T09:20:57.731Z,95029.00
2023-05-02T09:21:57.666Z,95029.00
2023-05-02T09:22:57.736Z,95033.00
2023-05-02T09:23:57.739Z,95029.00
2023-05-02T09:24:58.126Z,95031.00
2023-05-02T09:25:58.401Z,95031.00
2023-05-02T09:26:57.781Z,95035.00
2023-05-02T09:27:57.799Z,95035.00
2023-05-02T09:28:57.813Z,95035.00
2023-05-02T09:29:57.895Z,95035.00
2023-05-02T09:30:57.933Z,95033.00
2023-05-02T09:31:57.973Z,95035.00
2023-05-02T09:32:58.084Z,95035.00
2023-05-02T09:33:57.981Z,95033.00
2023-05-02T09:34:58.234Z,95035.00
2023-05-02T09:35:58.032Z,95033.00
2023-05-02T09:36:58.069Z,95035.00
2023-05-02T09:37:58.348Z,95035.00
2023-05-02T09:38:58.332Z,95035.00
2023-05-02T09:39:58.147Z,95033.00
2023-05-02T09:40:58.269Z,95035.00
2023-05-02T09:41:58.237Z,95039.00
2023-05-02T09:42:58.483Z,95037.00
2023-05-02T09:43:58.289Z,95035.00
2023-05-02T09:44:58.458Z,95033.00
2023-05-02T09:45:59.322Z,95041.00
2023-05-02T09:46:58.452Z,95039.00
2023-05-02T09:47:58.535Z,95043.00
2023-05-02T09:48:58.661Z,95035.00
2023-05-02T09:49:58.662Z,95037.00
2023-05-02T09:50:58.842Z,95037.00
2023-05-02T09:51:58.702Z,95039.00
2023-05-02T09:52:58.797Z,95031.00
2023-05-02T09:53:58.808Z,95031.00
2023-05-02T09:54:58.875Z,95035.00
2023-05-02T09:55:58.916Z,95035.00
2023-05-02T09:56:58.978Z,95037.00
2023-05-02T09:57:58.947Z,95035.00
2023-05-02T09:58:58.942Z,95033.00
2023-05-02T10:00:01.800Z,95035.00
2023-05-02T10:00:58.990Z,95033.00
2023-05-02T10:01:59.062Z,95033.00
2023-05-02T10:02:59.071Z,95033.00
2023-05-02T10:03:59.034Z,95037.00
2023-05-02T10:04:59.299Z,95033.00
2023-05-02T10:05:59.001Z,95027.00
2023-05-02T10:06:58.936Z,95029.00
2023-05-02T10:07:59.044Z,95033.00
2023-05-02T10:08:58.937Z,95033.00
2023-05-02T10:09:59.869Z,95033.00
2023-05-02T10:10:59.069Z,95033.00
2023-05-02T10:11:59.040Z,95029.00
2023-05-02T10:12:59.077Z,95031.00
2023-05-02T10:13:58.922Z,95031.00
2023-05-02T10:14:59.018Z,95033.00
2023-05-02T10:15:59.212Z,95031.00
2023-05-02T10:16:58.889Z,95027.00
2023-05-02T10:17:58.915Z,95031.00
2023-05-02T10:18:59.387Z,95035.00
2023-05-02T10:19:58.894Z,95029.00
2023-05-02T10:20:58.896Z,95029.00
2023-05-02T10:21:59.819Z,95029.00
2023-05-02T10:22:58.822Z,95031.00
2023-05-02T10:23:58.864Z,95029.00
2023-05-02T10:24:59.062Z,95031.00
2023-05-02T10:26:00.139Z,95027.00
2023-05-02T10:26:58.828Z,95027.00
2023-05-02T10:27:58.914Z,95027.00
2023-05-02T10:29:00.322Z,95027.00
2023-05-02T10:29:58.822Z,95025.00
2023-05-02T10:30:58.926Z,95025.00
2023-05-02T10:31:58.817Z,95019.00
2023-05-02T10:32:58.812Z,95023.00
2023-05-02T10:33:58.788Z,95023.00
2023-05-02T10:34:58.906Z,95021.00
2023-05-02T10:35:58.733Z,95021.00
2023-05-02T10:36:59.351Z,95025.00
2023-05-02T10:37:58.738Z,95027.00
2023-05-02T10:38:58.856Z,95025.00
2023-05-02T10:39:58.724Z,95025.00
2023-05-02T10:40:58.736Z,95027.00
2023-05-02T10:41:58.815Z,95027.00
2023-05-02T10:42:59.783Z,95017.00
2023-05-02T10:43:58.864Z,95025.00
2023-05-02T10:44:59.032Z,95021.00
2023-05-02T10:45:58.914Z,95021.00
2023-05-02T10:46:58.984Z,95017.00
2023-05-02T10:47:59.137Z,95021.00
2023-05-02T10:48:59.048Z,95017.00
2023-05-02T10:49:59.067Z,95017.00
2023-05-02T10:50:59.252Z,95019.00
2023-05-02T10:51:59.142Z,95017.00
2023-05-02T10:52:59.186Z,95015.00
2023-05-02T10:53:59.341Z,95017.00
2023-05-02T10:54:59.274Z,95013.00
2023-05-02T10:55:59.327Z,95013.00
2023-05-02T10:56:59.211Z,95015.00
2023-05-02T10:57:59.399Z,95008.00
2023-05-02T10:58:59.359Z,95011.00
2023-05-02T10:59:59.372Z,95011.00
2023-05-02T11:00:59.375Z,95011.00
2023-05-02T11:01:59.513Z,95009.00
2023-05-02T11:02:59.486Z,95011.00
2023-05-02T11:03:59.465Z,95008.00
2023-05-02T11:04:59.951Z,95008.00
2023-05-02T11:05:59.436Z,95011.00
2023-05-02T11:06:59.438Z,95011.00
2023-05-02T11:07:59.476Z,95011.00
2023-05-02T11:08:59.521Z,95008.00
2023-05-02T11:09:59.613Z,95009.00
2023-05-02T11:10:59.574Z,95011.00
2023-05-02T11:11:59.678Z,95015.00
2023-05-02T11:12:59.583Z,95013.00
2023-05-02T11:13:59.628Z,95011.00
2023-05-02T11:14:59.801Z,95011.00
2023-05-02T11:15:59.912Z,95013.00
2023-05-02T11:16:59.727Z,95006.00
2023-05-02T11:17:59.772Z,95008.00
2023-05-02T11:18:59.773Z,95008.00
2023-05-02T11:19:59.760Z,95006.00
2023-05-02T11:20:59.841Z,95006.00
2023-05-02T11:21:59.826Z,95006.00
2023-05-02T11:22:59.849Z,95009.00
2023-05-02T11:23:59.873Z,95009.00
2023-05-02T11:25:00.173Z,95006.00
2023-05-02T11:25:59.972Z,95004.00
2023-05-02T11:26:59.973Z,95006.00
2023-05-02T11:27:59.989Z,95004.00
2023-05-02T11:29:00.025Z,95006.00
2023-05-02T11:30:00.089Z,95004.00
2023-05-02T11:31:00.113Z,95004.00
2023-05-02T11:32:00.278Z,95004.00
2023-05-02T11:33:00.240Z,95006.00
2023-05-02T11:34:00.221Z,95002.00
2023-05-02T11:35:00.618Z,95004.00
2023-05-02T11:36:00.348Z,95002.00
2023-05-02T11:37:00.322Z,95006.00
2023-05-02T11:38:00.404Z,95006.00
2023-05-02T11:39:00.392Z,95002.00
2023-05-02T11:40:00.425Z,95004.00
2023-05-02T11:41:00.494Z,95002.00
2023-05-02T11:42:00.591Z,95002.00
2023-05-02T11:43:00.616Z,95002.00
2023-05-02T11:44:00.593Z,95002.00
2023-05-02T11:45:00.898Z,94998.00